Riceboro, Georgia
Current Conditions -  °F | °C
As of 4:58 AM on Friday 31 Oct 2014 (Local Time) from KLHW Reporting Station
Clear Clear  
Wind Chill: 51°   Ceiling: Unl
Heat Index: 51°   Visibility: 10mi
Dew Point: 49°   Wind: 5mph
Humidity: 94%   Direction: 340°NNW
Pressure: 29.87"   Gusts: NA
Location:  31.74°N, 81.43°W
Report Text: KLHW 310858Z AUTO 34004KT 10SM CLR 11/10 A2987 RMK AO2 SLP118 T01060096 55007
Loading
Personal Weather Stations






























Interactive Weather Map
Tropical Storm Tracking
New forecast layout! Learn more

10-Day Weather Forecast

Advertisements
Track Severe Weather on mobile